Tk Rotterdam — A8RG8 — position and weather

sailwx.info

Track history (hours):
 
Tides and Currents Weather Stations Pressure Air Temp Water Temp Dewpoint Dewpoint Depression Visibility Wind Speed Wind Dir Waves Ship Positions

Tk Rotterdam

Last reported at 2017-Jul-24 19:58 UTC. Time now 2017-Jul-26 12:36 UTC.
Position N 33°49' W 007°28'.

Length 130 m; draft 7.3 m.

Type: Cargo ship. MMSI: 636014098.

Date/timePositionNaut miles runAvg speedWind from/ knotsBaromVisibWave heightAir tempDewpointWater temp
2017-Jul-24 19:58N 33°49' W 007°28'33410.1
2017-Jul-23 10:58N 36°32' W 001°32'612.0
2017-Jul-23 10:29N 36°33' W 001°25'812.0
2017-Jul-23 09:46N 36°35' W 001°15'412.1
2017-Jul-23 09:28N 36°35' W 001°10'511.9
2017-Jul-23 09:00N 36°36' W 001°04'2611.8
2017-Jul-23 06:50N 36°41' W 000°32'1411.6
2017-Jul-23 05:36N 36°44' W 000°15'511.6
2017-Jul-23 05:13N 36°45' W 000°09'211.6
2017-Jul-23 05:00N 36°45' W 000°06'711.6
2017-Jul-23 04:24N 36°46' E 000°02'511.5
2017-Jul-23 04:00N 36°47' E 000°08'1011.4
2017-Jul-23 03:08N 36°49' E 000°20'211.4
2017-Jul-23 02:59N 36°49' E 000°22'911.6
2017-Jul-23 02:15N 36°50' E 000°33'311.7
2017-Jul-23 02:00N 36°51' E 000°36'1311.5
2017-Jul-23 00:51N 36°53' E 000°53'4612.0
2017-Jul-22 21:00N 37°01' E 001°50'612.5
2017-Jul-22 20:30N 37°02' E 001°57'912.5
2017-Jul-22 19:49N 37°03' E 002°08'512.4
2017-Jul-22 19:25N 37°04' E 002°14'512.5
2017-Jul-22 19:00N 37°05' E 002°20'912.3
2017-Jul-22 18:16N 37°06' E 002°32'512.2
2017-Jul-22 17:53N 37°07' E 002°38'9211.5
2017-Jul-22 09:55N 37°19' E 004°32'511.5
2017-Jul-22 09:28N 37°20' E 004°38'1811.8
2017-Jul-22 07:55N 37°23' E 005°01'511.9
2017-Jul-22 07:30N 37°23' E 005°07'611.8
2017-Jul-22 07:00N 37°24' E 005°14'611.7
2017-Jul-22 06:29N 37°25' E 005°22'13011.3
2017-Jul-21 18:56N 37°38' E 008°05'511.6
2017-Jul-21 18:28N 37°39' E 008°12'811.8
2017-Jul-21 17:50N 37°39' E 008°21'511.5
2017-Jul-21 17:23N 37°40' E 008°28'511.4
2017-Jul-21 16:59N 37°40' E 008°34'4011.3
2017-Jul-21 13:24N 37°41' E 009°25'411.4
2017-Jul-21 13:00N 37°41' E 009°30'7511.6
2017-Jul-21 06:30N 37°30' E 011°04'3111.7
2017-Jul-21 03:52N 37°19' E 011°41'411.8
2017-Jul-21 03:30N 37°18' E 011°46'2611.9
2017-Jul-21 01:17N 37°10' E 012°18'412.1
2017-Jul-21 01:00N 37°08' E 012°22'612.2
2017-Jul-21 00:29N 37°07' E 012°29'611.9
2017-Jul-21 00:00N 37°05' E 012°36'611.7
2017-Jul-20 23:30N 37°03' E 012°43'611.9
2017-Jul-20 23:00N 37°01' E 012°50'611.9
2017-Jul-20 22:30N 36°59' E 012°57'611.8
2017-Jul-20 22:00N 36°57' E 013°04'611.5
2017-Jul-20 21:30N 36°55' E 013°11'611.5
2017-Jul-20 21:00N 36°53' E 013°18'611.6
2017-Jul-20 20:30N 36°51' E 013°24'611.5
2017-Jul-20 20:00N 36°49' E 013°31'611.5
2017-Jul-20 19:30N 36°47' E 013°38'611.3
2017-Jul-20 19:00N 36°45' E 013°45'611.3
2017-Jul-20 18:30N 36°44' E 013°51'511.0
2017-Jul-20 18:00N 36°42' E 013°58'510.7
2017-Jul-20 17:30N 36°40' E 014°04'510.7
2017-Jul-20 17:00N 36°38' E 014°10'510.6
2017-Jul-20 16:30N 36°36' E 014°16'510.8
2017-Jul-20 16:00N 36°34' E 014°23'510.8
2017-Jul-20 15:30N 36°33' E 014°29'510.8
2017-Jul-20 15:00N 36°31' E 014°35'1110.5
2017-Jul-20 14:00N 36°30' E 014°48'510.4
2017-Jul-20 13:30N 36°30' E 014°55'510.8
2017-Jul-20 13:00N 36°30' E 015°02'811.3
2017-Jul-20 12:18N 36°31' E 015°11'311.1
2017-Jul-20 12:00N 36°31' E 015°16'611.0
2017-Jul-20 11:29N 36°31' E 015°23'  
2017-Jul-15 23:45N 46°15' E 030°54'2 9.1
2017-Jul-15 23:30N 46°17' E 030°55'4 9.1
2017-Jul-15 23:01N 46°22' E 030°55'5 9.2
2017-Jul-15 22:30N 46°26' E 030°55'5 9.3
2017-Jul-15 22:01N 46°31' E 030°55'4 8.3
2017-Jul-15 21:30N 46°33' E 031°00'4 8.3
2017-Jul-15 21:00N 46°35' E 031°06'4 8.8
2017-Jul-15 20:30N 46°35' E 031°13'4 8.5
2017-Jul-15 20:00N 46°35' E 031°19'4 8.6
2017-Jul-15 19:30N 46°35' E 031°25'  
Track history (hours):
 
Tides and Currents Weather Stations Pressure Air Temp Water Temp Dewpoint Dewpoint Depression Visibility Wind Speed Wind Dir Waves Ship Positions

Tk Rotterdam

Last reported at 2017-Jul-24 19:58 UTC. Time now 2017-Jul-26 12:36 UTC.
Position N 33°49' W 007°28'.

Length 130 m; draft 7.3 m.

Type: Cargo ship. MMSI: 636014098.

Date/timePositionNaut miles runAvg speedWind from/ knotsBaromVisibWave heightAir tempDewpointWater temp
2017-Jul-24 19:58N 33°49' W 007°28'33410.1
2017-Jul-23 10:58N 36°32' W 001°32'612.0
2017-Jul-23 10:29N 36°33' W 001°25'812.0
2017-Jul-23 09:46N 36°35' W 001°15'412.1
2017-Jul-23 09:28N 36°35' W 001°10'511.9
2017-Jul-23 09:00N 36°36' W 001°04'2611.8
2017-Jul-23 06:50N 36°41' W 000°32'1411.6
2017-Jul-23 05:36N 36°44' W 000°15'511.6
2017-Jul-23 05:13N 36°45' W 000°09'211.6
2017-Jul-23 05:00N 36°45' W 000°06'711.6
2017-Jul-23 04:24N 36°46' E 000°02'511.5
2017-Jul-23 04:00N 36°47' E 000°08'1011.4
2017-Jul-23 03:08N 36°49' E 000°20'211.4
2017-Jul-23 02:59N 36°49' E 000°22'911.6
2017-Jul-23 02:15N 36°50' E 000°33'311.7
2017-Jul-23 02:00N 36°51' E 000°36'1311.5
2017-Jul-23 00:51N 36°53' E 000°53'4612.0
2017-Jul-22 21:00N 37°01' E 001°50'612.5
2017-Jul-22 20:30N 37°02' E 001°57'912.5
2017-Jul-22 19:49N 37°03' E 002°08'512.4
2017-Jul-22 19:25N 37°04' E 002°14'512.5
2017-Jul-22 19:00N 37°05' E 002°20'912.3
2017-Jul-22 18:16N 37°06' E 002°32'512.2
2017-Jul-22 17:53N 37°07' E 002°38'9211.5
2017-Jul-22 09:55N 37°19' E 004°32'511.5
2017-Jul-22 09:28N 37°20' E 004°38'1811.8
2017-Jul-22 07:55N 37°23' E 005°01'511.9
2017-Jul-22 07:30N 37°23' E 005°07'611.8
2017-Jul-22 07:00N 37°24' E 005°14'611.7
2017-Jul-22 06:29N 37°25' E 005°22'13011.3
2017-Jul-21 18:56N 37°38' E 008°05'511.6
2017-Jul-21 18:28N 37°39' E 008°12'811.8
2017-Jul-21 17:50N 37°39' E 008°21'511.5
2017-Jul-21 17:23N 37°40' E 008°28'511.4
2017-Jul-21 16:59N 37°40' E 008°34'4011.3
2017-Jul-21 13:24N 37°41' E 009°25'411.4
2017-Jul-21 13:00N 37°41' E 009°30'7511.6
2017-Jul-21 06:30N 37°30' E 011°04'3111.7
2017-Jul-21 03:52N 37°19' E 011°41'411.8
2017-Jul-21 03:30N 37°18' E 011°46'2611.9
2017-Jul-21 01:17N 37°10' E 012°18'412.1
2017-Jul-21 01:00N 37°08' E 012°22'612.2
2017-Jul-21 00:29N 37°07' E 012°29'611.9
2017-Jul-21 00:00N 37°05' E 012°36'611.7
2017-Jul-20 23:30N 37°03' E 012°43'611.9
2017-Jul-20 23:00N 37°01' E 012°50'611.9
2017-Jul-20 22:30N 36°59' E 012°57'611.8
2017-Jul-20 22:00N 36°57' E 013°04'611.5
2017-Jul-20 21:30N 36°55' E 013°11'611.5
2017-Jul-20 21:00N 36°53' E 013°18'611.6
2017-Jul-20 20:30N 36°51' E 013°24'611.5
2017-Jul-20 20:00N 36°49' E 013°31'611.5
2017-Jul-20 19:30N 36°47' E 013°38'611.3
2017-Jul-20 19:00N 36°45' E 013°45'611.3
2017-Jul-20 18:30N 36°44' E 013°51'511.0
2017-Jul-20 18:00N 36°42' E 013°58'510.7
2017-Jul-20 17:30N 36°40' E 014°04'510.7
2017-Jul-20 17:00N 36°38' E 014°10'510.6
2017-Jul-20 16:30N 36°36' E 014°16'510.8
2017-Jul-20 16:00N 36°34' E 014°23'510.8
2017-Jul-20 15:30N 36°33' E 014°29'510.8
2017-Jul-20 15:00N 36°31' E 014°35'1110.5
2017-Jul-20 14:00N 36°30' E 014°48'510.4
2017-Jul-20 13:30N 36°30' E 014°55'510.8
2017-Jul-20 13:00N 36°30' E 015°02'811.3
2017-Jul-20 12:18N 36°31' E 015°11'311.1
2017-Jul-20 12:00N 36°31' E 015°16'611.0
2017-Jul-20 11:29N 36°31' E 015°23'  
2017-Jul-15 23:45N 46°15' E 030°54'2 9.1
2017-Jul-15 23:30N 46°17' E 030°55'4 9.1
2017-Jul-15 23:01N 46°22' E 030°55'5 9.2
2017-Jul-15 22:30N 46°26' E 030°55'5 9.3
2017-Jul-15 22:01N 46°31' E 030°55'4 8.3
2017-Jul-15 21:30N 46°33' E 031°00'4 8.3
2017-Jul-15 21:00N 46°35' E 031°06'4 8.8
2017-Jul-15 20:30N 46°35' E 031°13'4 8.5
2017-Jul-15 20:00N 46°35' E 031°19'4 8.6
2017-Jul-15 19:30N 46°35' E 031°25'  

Dump ship's entire track history